Time;durP1;ratioP1;P1;durP2;ratioP2;P2;SDS_P1;SDS_P2;PMS_P1;PMS_P2;Temp;Humidity;BMP_temperature;BMP_pressure;BME280_temperature;BME280_humidity;BME280_pressure;Samples;Min_cycle;Max_cycle;Signal;HPM_P1;HPM_P2
2022/06/08 00:00:12;;;;;;;;;9.33;9.33;;;;;16.51;62.21;101009.50;5054472;28;9453;-66
2022/06/08 00:02:43;;;;;;;;;10.00;9.00;;;;;16.49;62.37;101006.19;5054868;28;9316;-65
2022/06/08 00:05:10;;;;;;;;;9.33;7.00;;;;;16.49;62.51;101000.75;5051206;28;9218;-65
2022/06/08 00:07:36;;;;;;;;;7.67;6.00;;;;;16.50;62.30;100997.78;5055266;28;9302;-66
2022/06/08 00:10:04;;;;;;;;;6.00;6.00;;;;;16.46;62.89;100999.31;5052122;28;9232;-65
2022/06/08 00:12:31;;;;;;;;;7.33;7.33;;;;;16.45;62.85;100994.13;5050421;28;9339;-65
2022/06/08 00:14:57;;;;;;;;;8.33;7.00;;;;;16.47;63.12;100998.25;5054985;28;9312;-66
2022/06/08 00:17:24;;;;;;;;;10.67;9.33;;;;;16.48;63.34;100996.34;5040340;28;9346;-65
2022/06/08 00:19:50;;;;;;;;;7.33;6.00;;;;;16.51;63.15;100987.75;5054299;28;9154;-65
2022/06/08 00:22:17;;;;;;;;;7.33;7.33;;;;;16.51;63.81;100983.13;5048513;28;9189;-66
2022/06/08 00:24:43;;;;;;;;;7.00;7.00;;;;;16.54;63.68;100985.41;5051894;28;9165;-65
2022/06/08 00:27:10;;;;;;;;;6.00;6.00;;;;;16.52;64.00;100982.06;5050048;28;9413;-65
2022/06/08 00:29:37;;;;;;;;;7.00;6.67;;;;;16.55;64.20;100978.06;5051893;28;9254;-67
2022/06/08 00:32:05;;;;;;;;;9.33;8.67;;;;;16.55;64.29;100981.63;5047634;28;9275;-66
2022/06/08 00:34:32;;;;;;;;;10.00;8.67;;;;;16.55;64.88;100978.91;5036321;28;9235;-66
2022/06/08 00:36:58;;;;;;;;;6.00;6.00;;;;;16.56;64.97;100971.56;5042924;28;9426;-65
2022/06/08 00:39:24;;;;;;;;;6.33;5.67;;;;;16.59;65.18;100970.28;5043700;28;9061;-65
2022/06/08 00:41:58;;;;;;;;;9.33;9.33;;;;;16.60;65.68;100970.06;5046651;28;9072;-65
2022/06/08 00:44:31;;;;;;;;;10.67;10.00;;;;;16.59;65.73;100965.69;5042173;28;9156;-65
2022/06/08 00:47:00;;;;;;;;;11.67;10.33;;;;;16.59;66.07;100962.13;5040409;28;9435;-66
2022/06/08 00:49:31;;;;;;;;;7.67;5.00;;;;;16.58;66.54;100960.50;5045342;28;9211;-66
2022/06/08 00:52:00;;;;;;;;;6.00;6.00;;;;;16.59;66.82;100954.81;5045366;28;9123;-65
2022/06/08 00:54:31;;;;;;;;;7.67;6.33;;;;;16.60;66.48;100940.16;5053140;28;9128;-66
2022/06/08 00:57:02;;;;;;;;;8.33;5.67;;;;;16.62;66.62;100942.66;5050274;28;9235;-66
2022/06/08 00:59:29;;;;;;;;;10.00;6.67;;;;;16.60;66.96;100937.44;5050028;28;9318;-66
2022/06/08 01:01:55;;;;;;;;;7.00;7.00;;;;;16.60;67.12;100936.63;5051751;28;9095;-66
2022/06/08 01:04:25;;;;;;;;;9.33;7.67;;;;;16.56;67.86;100938.97;5048128;28;9134;-65
2022/06/08 01:06:57;;;;;;;;;7.00;6.00;;;;;16.57;67.83;100935.22;5052572;28;9248;-65
2022/06/08 01:09:30;;;;;;;;;10.25;9.75;;;;;16.56;68.04;100937.06;5048521;28;9326;-65
2022/06/08 01:12:00;;;;;;;;;6.67;5.00;;;;;16.56;67.89;100930.81;5044226;28;9474;-66
2022/06/08 01:14:34;;;;;;;;;7.33;6.00;;;;;16.55;68.10;100921.00;5048818;28;9395;-66
2022/06/08 01:17:15;;;;;;;;;9.33;7.00;;;;;16.53;68.55;100921.25;5046204;28;9325;-66
2022/06/08 01:19:47;;;;;;;;;6.00;6.00;;;;;16.52;68.50;100914.13;5045975;28;9375;-67
2022/06/08 01:22:19;;;;;;;;;8.00;5.67;;;;;16.52;68.50;100914.13;5048230;28;9430;-66
2022/06/08 01:24:52;;;;;;;;;7.00;6.67;;;;;16.52;68.42;100907.88;5042204;28;9337;-66
2022/06/08 01:27:49;;;;;;;;;7.00;6.00;;;;;16.49;68.51;100911.06;5044161;28;9217;-67
2022/06/08 01:30:22;;;;;;;;;5.00;5.00;;;;;16.51;68.93;100904.34;5045144;28;9180;-67
2022/06/08 01:33:26;;;;;;;;;7.67;6.00;;;;;16.49;68.60;100901.03;5048617;28;9239;-66
2022/06/08 01:36:32;;;;;;;;;7.33;7.00;;;;;16.45;69.17;100899.84;5048124;28;9384;-67
2022/06/08 01:39:07;;;;;;;;;9.33;7.00;;;;;16.43;69.35;100899.22;5043874;28;9231;-66
2022/06/08 01:42:13;;;;;;;;;4.00;4.00;;;;;16.40;69.25;100882.56;5049679;28;9154;-66
2022/06/08 01:47:59;;;;;;;;;6.67;6.67;;;;;16.36;69.54;100881.38;5046047;28;9236;-66
2022/06/08 01:50:55;;;;;;;;;7.67;6.67;;;;;16.34;69.42;100876.19;5051786;28;9162;-66
2022/06/08 01:53:56;;;;;;;;;6.67;5.67;;;;;16.34;69.40;100875.34;5043016;28;9215;-66
2022/06/08 01:56:33;;;;;;;;;4.33;4.33;;;;;16.34;69.50;100870.75;5047967;28;9213;-66
2022/06/08 01:59:24;;;;;;;;;7.00;6.00;;;;;16.31;69.25;100868.47;5049097;28;9235;-66
2022/06/08 02:02:04;;;;;;;;;7.00;7.00;;;;;16.31;69.55;100865.75;5055329;28;9977;-66
2022/06/08 02:04:41;;;;;;;;;7.00;7.00;;;;;16.28;69.64;100866.22;5050502;28;9374;-66
2022/06/08 02:07:13;;;;;;;;;9.00;7.00;;;;;16.26;70.08;100857.50;5050245;28;9227;-66
2022/06/08 02:09:55;;;;;;;;;12.00;12.00;;;;;16.23;70.27;100853.34;5051270;28;10137;-66
2022/06/08 02:12:22;;;;;;;;;17.00;12.33;;;;;16.22;70.02;100851.69;5048090;28;9541;-66
2022/06/08 02:15:00;;;;;;;;;14.25;11.25;;;;;16.22;70.20;100848.16;5044247;28;9494;-66
2022/06/08 02:17:45;;;;;;;;;13.50;13.50;;;;;16.20;70.30;100844.81;5058173;28;9544;-66
2022/06/08 02:20:16;;;;;;;;;11.50;11.50;;;;;16.20;70.37;100844.81;5051162;28;9463;-66
2022/06/08 02:22:49;;;;;;;;;14.50;13.00;;;;;16.16;70.47;100835.47;5046098;28;9611;-66
2022/06/08 02:25:25;;;;;;;;;22.00;20.50;;;;;16.09;70.34;100829.34;5045638;28;9515;-66
2022/06/08 02:28:13;;;;;;;;;18.00;13.50;;;;;16.07;71.08;100824.13;5036990;28;9673;-66
2022/06/08 02:30:49;;;;;;;;;13.25;11.00;;;;;16.04;71.03;100821.84;5050549;28;9537;-66
2022/06/08 02:36:18;;;;;;;;;15.75;9.50;;;;;16.05;71.09;100812.69;5040808;28;9510;-66
2022/06/08 02:38:53;;;;;;;;;15.75;14.25;;;;;16.02;70.80;100813.13;5043216;28;9438;-65
2022/06/08 02:41:24;;;;;;;;;15.00;14.50;;;;;16.01;71.28;100808.75;5043153;28;9622;-66
2022/06/08 02:44:00;;;;;;;;;12.25;12.25;;;;;16.00;70.95;100807.09;5041827;28;9506;-66
2022/06/08 02:46:47;;;;;;;;;16.00;13.25;;;;;15.97;71.03;100805.69;5048306;28;9653;-67
2022/06/08 02:49:16;;;;;;;;;17.50;15.50;;;;;15.96;71.33;100804.03;5023179;28;9463;-66
2022/06/08 02:51:48;;;;;;;;;19.00;17.25;;;;;15.92;71.13;100794.69;5050126;28;9697;-66
2022/06/08 02:54:21;;;;;;;;;20.75;18.25;;;;;15.91;71.36;100795.72;5041573;28;9757;-67
2022/06/08 02:57:04;;;;;;;;;18.50;16.50;;;;;15.88;71.51;100796.22;5049893;28;9806;-66
2022/06/08 02:59:49;;;;;;;;;13.75;11.50;;;;;15.89;71.64;100797.03;5041936;28;9573;-66
2022/06/08 03:02:31;;;;;;;;;15.50;15.50;;;;;15.86;71.32;100800.19;5043180;28;9446;-66
2022/06/08 03:05:13;;;;;;;;;13.50;13.50;;;;;15.85;71.84;100791.25;5039302;28;9601;-66
2022/06/08 03:07:47;;;;;;;;;17.75;16.25;;;;;15.85;71.58;100791.25;5032089;28;10371;-66
2022/06/08 03:10:15;;;;;;;;;18.25;13.00;;;;;15.83;71.43;100790.63;5050174;28;9739;-66
2022/06/08 03:12:51;;;;;;;;;13.50;12.25;;;;;15.83;71.29;100783.31;5049035;28;9620;-66
2022/06/08 03:15:22;;;;;;;;;22.50;20.25;;;;;15.81;71.58;100780.00;5049341;28;9587;-66
2022/06/08 03:17:50;;;;;;;;;18.00;18.00;;;;;15.81;71.68;100777.28;5034213;28;9701;-66
2022/06/08 03:20:22;;;;;;;;;14.50;12.00;;;;;15.82;71.38;100778.94;5035790;28;9706;-67
2022/06/08 03:22:49;;;;;;;;;15.75;15.75;;;;;15.81;71.60;100787.31;5062373;28;9427;-66
2022/06/08 03:25:16;;;;;;;;;20.50;17.50;;;;;15.78;71.75;100776.91;5050282;28;9607;-66
2022/06/08 03:27:47;;;;;;;;;18.50;17.50;;;;;15.77;71.49;100775.28;5047274;28;9690;-66
2022/06/08 03:30:15;;;;;;;;;20.25;20.25;;;;;15.76;71.35;100784.47;5047737;28;9611;-66
2022/06/08 03:32:42;;;;;;;;;18.25;18.00;;;;;15.76;71.48;100784.47;5050208;28;9932;-66
2022/06/08 03:35:12;;;;;;;;;14.25;13.75;;;;;15.77;71.66;100778.00;5038703;28;9718;-66
2022/06/08 03:37:42;;;;;;;;;18.00;16.75;;;;;15.76;71.81;100779.06;5045432;28;9630;-66
2022/06/08 03:40:11;;;;;;;;;20.00;18.25;;;;;15.78;71.56;100777.75;5046667;28;9738;-66
2022/06/08 03:42:38;;;;;;;;;16.75;16.00;;;;;15.81;71.61;100782.72;5051392;28;9770;-66
2022/06/08 03:45:06;;;;;;;;;12.00;11.00;;;;;15.85;71.70;100776.84;5046975;28;9675;-66
2022/06/08 03:47:38;;;;;;;;;18.00;15.75;;;;;15.86;71.78;100779.31;5049295;28;9616;-66
2022/06/08 03:50:10;;;;;;;;;13.00;12.00;;;;;15.86;71.38;100775.78;5051054;28;9605;-66
2022/06/08 03:52:40;;;;;;;;;27.50;21.25;;;;;15.84;71.39;100776.03;5046300;28;9542;-65
2022/06/08 03:55:08;;;;;;;;;13.50;11.25;;;;;15.85;71.65;100780.38;5050249;28;9757;-65
2022/06/08 03:57:34;;;;;;;;;19.75;19.75;;;;;15.82;71.51;100775.41;5051000;28;9959;-66
2022/06/08 04:00:06;;;;;;;;;18.50;16.50;;;;;15.76;71.40;100779.88;5044348;28;9578;-65
2022/06/08 04:02:45;;;;;;;;;13.25;12.25;;;;;15.77;71.61;100773.38;5051364;28;9666;-65
2022/06/08 04:05:14;;;;;;;;;13.25;11.25;;;;;15.82;71.81;100775.41;5044174;28;9448;-66
2022/06/08 04:07:42;;;;;;;;;17.50;16.75;;;;;15.85;71.32;100777.66;5039324;28;9550;-65
2022/06/08 04:10:09;;;;;;;;;12.50;12.50;;;;;15.85;71.69;100779.56;5041976;28;9586;-68
2022/06/08 04:12:36;;;;;;;;;15.67;15.67;;;;;15.86;71.52;100775.78;5030094;28;9601;-65
2022/06/08 04:15:04;;;;;;;;;14.50;13.25;;;;;15.88;71.52;100768.22;5047350;28;9446;-65
2022/06/08 04:17:31;;;;;;;;;10.50;9.75;;;;;15.89;70.95;100761.75;5049350;28;9544;-68
2022/06/08 04:19:58;;;;;;;;;17.25;14.50;;;;;15.90;71.06;100779.69;5042612;28;10245;-66
2022/06/08 04:22:31;;;;;;;;;17.25;12.50;;;;;15.90;70.95;100776.97;5047083;28;9446;-65
2022/06/08 04:25:01;;;;;;;;;14.25;12.25;;;;;15.90;70.95;100775.06;5048105;28;9437;-66
2022/06/08 04:27:28;;;;;;;;;17.00;13.50;;;;;15.89;70.79;100762.56;5049202;28;9540;-66
2022/06/08 04:29:55;;;;;;;;;10.00;10.00;;;;;15.93;70.99;100760.22;5043671;28;9635;-65
2022/06/08 04:32:23;;;;;;;;;10.67;10.67;;;;;15.96;70.79;100762.44;5043380;28;9374;-66
2022/06/08 04:34:49;;;;;;;;;13.00;9.00;;;;;15.97;70.60;100758.69;5043251;28;9298;-65
2022/06/08 04:37:16;;;;;;;;;11.33;9.67;;;;;15.98;70.64;100765.78;5050365;28;9456;-65
2022/06/08 04:39:47;;;;;;;;;13.75;13.75;;;;;15.99;70.64;100767.44;5050614;28;10156;-65
2022/06/08 04:42:18;;;;;;;;;11.33;10.00;;;;;16.02;70.25;100758.81;5048076;28;9524;-66
2022/06/08 04:44:46;;;;;;;;;12.00;8.67;;;;;16.04;70.41;100748.53;5049907;28;9377;-66
2022/06/08 04:47:17;;;;;;;;;11.33;10.33;;;;;16.07;70.36;100750.81;5050870;28;9399;-66
2022/06/08 04:49:46;;;;;;;;;18.00;14.75;;;;;16.09;70.01;100750.59;5034707;28;9308;-65
2022/06/08 04:52:14;;;;;;;;;11.00;11.00;;;;;16.10;70.03;100749.53;5051018;28;9531;-66
2022/06/08 04:54:41;;;;;;;;;13.33;12.33;;;;;16.10;70.21;100742.19;5048906;28;9336;-65
2022/06/08 04:57:11;;;;;;;;;12.67;12.67;;;;;16.12;69.98;100744.66;5044417;28;10044;-66
2022/06/08 04:59:38;;;;;;;;;15.50;12.50;;;;;16.13;69.77;100743.63;5034112;28;9375;-66
2022/06/08 05:02:10;;;;;;;;;11.00;11.00;;;;;16.14;69.88;100742.56;5042170;28;9460;-66
2022/06/08 05:04:38;;;;;;;;;10.33;10.33;;;;;16.18;69.71;100743.75;5036060;28;9380;-66
2022/06/08 05:07:07;;;;;;;;;11.50;9.00;;;;;16.18;69.59;100746.47;5050481;28;9316;-65
2022/06/08 05:09:36;;;;;;;;;10.00;10.00;;;;;16.18;69.79;100733.72;5050795;28;9403;-66
2022/06/08 05:12:04;;;;;;;;;8.67;8.67;;;;;16.20;69.76;100739.72;5066313;28;9293;-66
2022/06/08 05:14:31;;;;;;;;;12.67;9.00;;;;;16.21;69.33;100738.69;5050399;28;9324;-66
2022/06/08 05:16:57;;;;;;;;;7.00;6.67;;;;;16.24;69.04;100731.94;5050298;28;9334;-66
2022/06/08 05:19:24;;;;;;;;;8.67;5.33;;;;;16.24;69.34;100732.75;5046489;28;9336;-66
2022/06/08 05:21:52;;;;;;;;;9.00;8.33;;;;;16.25;68.92;100725.47;5063938;28;9246;-65
2022/06/08 05:24:23;;;;;;;;;7.67;7.67;;;;;16.25;68.87;100728.19;5060399;28;9298;-66
2022/06/08 05:26:51;;;;;;;;;12.67;10.33;;;;;16.23;69.07;100725.69;5046358;28;9380;-66
2022/06/08 05:29:19;;;;;;;;;9.33;9.33;;;;;16.25;69.04;100715.44;5050292;28;9472;-66
2022/06/08 05:31:49;;;;;;;;;11.00;11.00;;;;;16.28;68.76;100709.50;5038671;28;9237;-65
2022/06/08 05:34:17;;;;;;;;;11.00;9.33;;;;;16.30;68.67;100710.09;5060628;28;10117;-66
2022/06/08 05:36:43;;;;;;;;;6.00;6.00;;;;;16.33;68.72;100711.53;5043290;28;9075;-66
2022/06/08 05:39:17;;;;;;;;;6.33;6.33;;;;;16.36;68.38;100705.59;5049768;28;9068;-65
2022/06/08 05:41:44;;;;;;;;;12.00;7.33;;;;;16.36;68.51;100712.94;5047843;28;9085;-66
2022/06/08 05:44:12;;;;;;;;;6.67;6.67;;;;;16.38;68.64;100710.81;5041435;28;9977;-65
2022/06/08 05:46:39;;;;;;;;;7.00;7.00;;;;;16.44;68.81;100716.13;5049723;28;9148;-65
2022/06/08 05:49:10;;;;;;;;;10.00;8.00;;;;;16.45;68.40;100708.81;5043529;28;9346;-66
2022/06/08 05:51:40;;;;;;;;;9.33;7.67;;;;;16.47;68.50;100704.78;5050249;28;9095;-66
2022/06/08 05:54:09;;;;;;;;;7.67;6.67;;;;;16.47;68.19;100707.50;5043476;28;9977;-65
2022/06/08 05:56:39;;;;;;;;;11.67;10.00;;;;;16.47;68.83;100712.94;5042460;28;9375;-66
2022/06/08 05:59:06;;;;;;;;;7.67;6.00;;;;;16.49;68.49;100708.13;5049001;28;9346;-65
2022/06/08 06:01:37;;;;;;;;;8.00;8.00;;;;;16.51;68.68;100707.88;5047479;28;9330;-66
2022/06/08 06:04:07;;;;;;;;;6.67;6.00;;;;;16.53;68.46;100700.31;5042102;28;9190;-65
2022/06/08 06:06:38;;;;;;;;;7.67;6.00;;;;;16.56;68.72;100695.22;5033146;28;9173;-66
2022/06/08 06:09:05;;;;;;;;;6.00;5.00;;;;;16.57;68.92;100687.91;5046035;28;9157;-66
2022/06/08 06:11:34;;;;;;;;;7.00;7.00;;;;;16.61;68.45;100694.53;5047782;28;9013;-66
2022/06/08 06:14:00;;;;;;;;;5.67;5.67;;;;;16.63;68.26;100686.94;5046111;28;9072;-66
2022/06/08 06:16:29;;;;;;;;;5.00;5.00;;;;;16.64;68.17;100688.59;5046060;28;9079;-68
2022/06/08 06:18:57;;;;;;;;;4.33;4.33;;;;;16.65;68.36;100687.53;5042767;28;9124;-66
2022/06/08 06:21:50;;;;;;;;;5.33;5.33;;;;;16.69;68.13;100683.28;5048122;28;9069;-65
2022/06/08 06:24:19;;;;;;;;;5.00;5.00;;;;;16.72;68.37;100685.50;5050618;28;9847;-66
2022/06/08 06:27:04;;;;;;;;;5.00;3.00;;;;;16.78;68.36;100681.06;5041439;28;8849;-64
2022/06/08 06:29:51;;;;;;;;;5.33;3.00;;;;;16.83;68.08;100680.34;5048940;28;8838;-68
2022/06/08 06:32:38;;;;;;;;;3.00;3.00;;;;;16.84;67.83;100677.38;5048565;28;8917;-66
2022/06/08 06:35:08;;;;;;;;;6.33;4.00;;;;;16.87;67.57;100668.72;5059999;28;8962;-66
2022/06/08 06:37:36;;;;;;;;;8.00;3.67;;;;;16.86;67.81;100667.09;5042293;28;9682;-67
2022/06/08 06:40:07;;;;;;;;;7.33;6.67;;;;;16.90;68.04;100662.00;5046615;28;9046;-67
2022/06/08 06:42:34;;;;;;;;;3.75;3.75;;;;;16.96;67.84;100669.19;5049333;28;8976;-67
2022/06/08 06:45:26;;;;;;;;;10.00;4.33;;;;;17.02;67.73;100660.06;5040371;28;8840;-67
2022/06/08 06:48:03;;;;;;;;;7.00;6.67;;;;;17.07;67.42;100657.44;5040172;28;8930;-67
2022/06/08 06:50:32;;;;;;;;;3.00;3.00;;;;;17.12;67.38;100665.69;5044881;28;8992;-67
2022/06/08 06:52:59;;;;;;;;;6.00;5.00;;;;;17.15;67.68;100664.41;5044233;28;8829;-66
2022/06/08 06:55:37;;;;;;;;;7.33;7.00;;;;;17.15;67.04;100662.50;5038753;28;8816;-66
2022/06/08 06:58:13;;;;;;;;;5.33;5.33;;;;;17.18;67.44;100661.22;5058205;28;8921;-66
2022/06/08 07:00:40;;;;;;;;;2.75;2.75;;;;;17.20;67.28;100659.88;5048547;28;8924;-67
2022/06/08 07:03:10;;;;;;;;;5.75;5.25;;;;;17.24;66.98;100660.22;5048579;28;8891;-67
2022/06/08 07:05:39;;;;;;;;;5.00;5.00;;;;;17.25;67.03;100656.44;5038653;28;8922;-67
2022/06/08 07:08:07;;;;;;;;;3.00;3.00;;;;;17.32;66.90;100659.00;5053400;28;9797;-70
2022/06/08 07:10:36;;;;;;;;;5.25;3.00;;;;;17.34;66.77;100659.56;5040827;28;8849;-67
2022/06/08 07:13:04;;;;;;;;;3.00;3.00;;;;;17.34;66.90;100655.00;5039342;28;8821;-66
2022/06/08 07:15:32;;;;;;;;;4.33;4.33;;;;;17.37;66.62;100651.75;5041631;28;8884;-67
2022/06/08 07:17:59;;;;;;;;;2.25;2.25;;;;;17.38;66.56;100645.28;5035085;28;9721;-67
2022/06/08 07:20:28;;;;;;;;;4.75;3.50;;;;;17.46;66.51;100644.03;5054754;28;8825;-67
2022/06/08 07:22:56;;;;;;;;;3.50;2.75;;;;;17.54;66.35;100633.59;5042850;28;8810;-67
2022/06/08 07:25:22;;;;;;;;;3.00;3.00;;;;;17.60;66.01;100637.22;5049316;28;8866;-66
2022/06/08 07:27:49;;;;;;;;;2.00;2.00;;;;;17.65;65.76;100633.75;5041983;28;8899;-67
2022/06/08 07:30:15;;;;;;;;;2.50;2.50;;;;;17.66;65.69;100624.50;5041344;28;8903;-67
2022/06/08 07:32:42;;;;;;;;;5.25;5.00;;;;;17.65;65.68;100620.97;5049292;28;8845;-67
2022/06/08 07:35:09;;;;;;;;;2.00;2.00;;;;;17.68;65.84;100622.38;5048899;28;8818;-67
2022/06/08 07:37:35;;;;;;;;;3.00;3.00;;;;;17.66;65.57;100617.19;5040074;28;8840;-67
2022/06/08 07:40:03;;;;;;;;;3.25;1.25;;;;;17.66;66.07;100622.63;5049535;28;8853;-67
2022/06/08 07:42:29;;;;;;;;;3.00;1.50;;;;;17.65;66.61;100620.97;5048473;28;8915;-67
2022/06/08 07:44:56;;;;;;;;;3.00;3.00;;;;;17.65;66.96;100623.69;5049003;28;8856;-67
2022/06/08 07:47:22;;;;;;;;;4.00;3.00;;;;;17.65;67.15;100617.41;5049232;28;8924;-67
2022/06/08 07:49:51;;;;;;;;;6.50;6.25;;;;;17.63;67.58;100614.94;5042455;28;8833;-67
2022/06/08 07:52:21;;;;;;;;;4.00;3.25;;;;;17.64;67.59;100621.22;5047201;28;8802;-67
2022/06/08 07:54:49;;;;;;;;;3.00;3.00;;;;;17.66;67.62;100616.34;5048799;28;8822;-66
2022/06/08 07:57:25;;;;;;;;;7.33;7.33;;;;;17.71;67.86;100609.09;5045153;28;9598;-67
2022/06/08 07:59:53;;;;;;;;;8.00;8.00;;;;;17.77;67.73;100607.31;5036272;28;8930;-67
2022/06/08 08:02:20;;;;;;;;;6.67;6.67;;;;;17.85;67.76;100611.50;5047735;28;9064;-66
2022/06/08 08:04:47;;;;;;;;;8.00;7.33;;;;;17.95;67.81;100609.78;5051729;28;8976;-67
2022/06/08 08:07:16;;;;;;;;;7.75;6.00;;;;;18.04;67.28;100611.00;5046993;28;9052;-65
2022/06/08 08:09:43;;;;;;;;;4.75;4.75;;;;;18.07;67.08;100603.41;5052752;28;8834;-67
2022/06/08 08:12:12;;;;;;;;;5.00;5.00;;;;;18.14;67.16;100607.59;5048741;28;8907;-67
2022/06/08 08:14:39;;;;;;;;;6.50;5.50;;;;;18.21;67.05;100613.72;5048188;28;8895;-67
2022/06/08 08:17:07;;;;;;;;;8.00;8.00;;;;;18.31;66.85;100612.19;5047554;28;8906;-66
2022/06/08 08:19:37;;;;;;;;;9.50;6.75;;;;;18.36;66.32;100602.22;5051486;28;8977;-67
2022/06/08 08:22:04;;;;;;;;;9.50;8.50;;;;;18.46;66.26;100604.22;5047244;28;9617;-67
2022/06/08 08:24:32;;;;;;;;;10.00;8.33;;;;;18.54;65.87;100603.78;5046573;28;8825;-65
2022/06/08 08:26:59;;;;;;;;;9.00;8.00;;;;;18.55;65.60;100605.44;5067932;28;8972;-66
2022/06/08 08:29:26;;;;;;;;;9.50;8.75;;;;;18.51;65.60;100604.28;5052288;28;8976;-66
2022/06/08 08:31:53;;;;;;;;;10.33;9.00;;;;;18.50;65.54;100608.09;5046419;28;8853;-67
2022/06/08 08:34:20;;;;;;;;;5.25;5.25;;;;;18.53;65.61;100602.16;5052348;28;8948;-67
2022/06/08 08:36:46;;;;;;;;;6.50;6.50;;;;;18.54;65.82;100593.72;5042468;28;8828;-65
2022/06/08 08:39:13;;;;;;;;;11.75;8.00;;;;;18.59;65.85;100600.31;5048532;28;8864;-67
2022/06/08 08:44:44;;;;;;;;;10.00;9.00;;;;;18.66;65.39;100588.13;5050743;28;8941;-66
2022/06/08 08:47:35;;;;;;;;;14.75;12.25;;;;;18.66;65.77;100595.50;5047359;28;8974;-66
2022/06/08 08:50:20;;;;;;;;;17.00;15.33;;;;;18.62;66.02;100589.72;5044751;28;8818;-67
2022/06/08 08:53:00;;;;;;;;;15.00;13.67;;;;;18.65;66.01;100599.31;5040679;28;9063;-67
2022/06/08 08:55:47;;;;;;;;;14.00;12.67;;;;;18.64;65.92;100598.50;5048756;28;8913;-66
2022/06/08 08:58:35;;;;;;;;;14.00;13.33;;;;;18.57;65.82;100600.56;5014854;28;9100;-66
2022/06/08 09:01:13;;;;;;;;;21.00;19.33;;;;;18.51;65.92;100594.25;5050559;28;9016;-66
2022/06/08 09:03:44;;;;;;;;;18.33;16.67;;;;;18.44;66.33;100600.94;5049410;28;9254;-66
2022/06/08 09:06:33;;;;;;;;;19.33;16.33;;;;;18.39;66.42;100598.97;5047159;28;9150;-66
2022/06/08 09:09:06;;;;;;;;;17.67;17.00;;;;;18.38;66.46;100594.59;5050498;28;9128;-66
2022/06/08 09:11:36;;;;;;;;;23.33;22.33;;;;;18.35;67.02;100595.13;5044641;28;9325;-66
2022/06/08 09:14:17;;;;;;;;;19.00;17.67;;;;;18.30;67.00;100595.03;5048264;28;9352;-66
2022/06/08 09:16:49;;;;;;;;;14.67;12.00;;;;;18.29;67.30;100593.38;5048245;28;9154;-66
2022/06/08 09:19:23;;;;;;;;;17.67;15.00;;;;;18.34;67.17;100589.91;5043604;28;8989;-66
2022/06/08 09:21:53;;;;;;;;;19.67;19.67;;;;;18.42;67.26;100586.75;5051659;28;9008;-66
2022/06/08 09:24:38;;;;;;;;;23.33;21.00;;;;;18.48;66.98;100589.28;5051291;28;9158;-67
2022/06/08 09:27:14;;;;;;;;;28.25;28.00;;;;;18.47;66.52;100582.19;5049006;28;9302;-66
2022/06/08 09:29:55;;;;;;;;;25.50;24.25;;;;;18.49;66.63;100577.31;5051202;28;9679;-66
2022/06/08 09:32:33;;;;;;;;;20.33;19.00;;;;;18.61;66.98;100585.34;5051248;28;9585;-66
2022/06/08 09:35:19;;;;;;;;;20.67;20.67;;;;;18.77;66.37;100572.75;5047378;28;9450;-66
2022/06/08 09:37:48;;;;;;;;;23.33;20.33;;;;;18.91;66.06;100579.47;5044821;28;9286;-65
2022/06/08 09:40:37;;;;;;;;;23.33;23.33;;;;;19.00;65.37;100577.94;5050960;28;9936;-67
2022/06/08 09:43:17;;;;;;;;;17.00;16.67;;;;;19.08;65.09;100578.53;5032351;28;9370;-66
2022/06/08 09:45:52;;;;;;;;;25.00;23.00;;;;;19.08;64.81;100571.19;5047507;28;9066;-66
2022/06/08 09:51:50;;;;;;;;;22.00;21.67;;;;;18.96;64.83;100570.53;5053389;28;9378;-66
2022/06/08 09:54:29;;;;;;;;;22.33;21.00;;;;;18.99;65.07;100570.00;5050301;28;9063;-67
2022/06/08 09:57:13;;;;;;;;;28.00;28.00;;;;;18.99;65.25;100572.72;5044933;28;9067;-66
2022/06/08 10:00:11;;;;;;;;;25.00;24.00;;;;;19.00;65.55;100568.94;5049508;28;9377;-66
2022/06/08 10:03:17;;;;;;;;;24.33;24.33;;;;;18.96;65.21;100568.63;5049591;28;9286;-66
2022/06/08 10:06:23;;;;;;;;;22.67;22.33;;;;;18.99;64.74;100559.09;5047821;28;9301;-66
2022/06/08 10:09:10;;;;;;;;;18.33;18.33;;;;;19.06;64.51;100567.91;5051889;28;9162;-66
2022/06/08 10:11:50;;;;;;;;;22.33;21.00;;;;;19.03;64.39;100569.22;5053955;28;9868;-66
2022/06/08 10:14:47;;;;;;;;;15.50;14.00;;;;;19.12;64.33;100569.59;5045659;28;9141;-66
2022/06/08 10:17:37;;;;;;;;;15.67;15.67;;;;;19.16;64.09;100562.56;5044657;28;8902;-66
2022/06/08 10:20:20;;;;;;;;;14.75;14.00;;;;;19.14;63.76;100556.53;5045032;28;9017;-66
2022/06/08 10:22:50;;;;;;;;;19.00;16.25;;;;;19.14;63.53;100564.69;5044493;28;8832;-67
2022/06/08 10:25:26;;;;;;;;;11.75;11.00;;;;;18.98;62.89;100573.81;5042558;28;9600;-67
2022/06/08 10:27:56;;;;;;;;;8.00;7.75;;;;;18.96;62.76;100570.53;5038568;28;8831;-66
2022/06/08 10:30:34;;;;;;;;;10.50;10.50;;;;;18.96;63.13;100567.81;5041557;28;8904;-67
2022/06/08 10:33:19;;;;;;;;;7.25;7.00;;;;;18.83;61.91;100574.44;5039996;28;8814;-66
2022/06/08 10:35:55;;;;;;;;;6.00;6.00;;;;;18.86;61.82;100571.22;5055483;28;8940;-67
2022/06/08 10:38:32;;;;;;;;;6.25;6.25;;;;;18.75;61.74;100580.34;5048627;28;8810;-67
2022/06/08 10:44:35;;;;;;;;;7.00;7.00;;;;;18.60;61.62;100588.34;5037150;28;8837;-66
2022/06/08 10:47:14;;;;;;;;;5.50;5.50;;;;;18.64;62.14;100589.50;5036628;28;9564;-66
2022/06/08 10:49:45;;;;;;;;;4.25;4.00;;;;;18.63;63.10;100590.53;5041461;28;8838;-65
2022/06/08 10:52:18;;;;;;;;;8.00;7.00;;;;;18.60;63.74;100588.34;5034174;28;8824;-66
2022/06/08 10:54:57;;;;;;;;;3.25;3.25;;;;;18.54;64.66;100607.34;5049909;28;8826;-67
2022/06/08 10:57:36;;;;;;;;;5.75;5.75;;;;;18.40;65.89;100597.91;5042841;28;8952;-67
2022/06/08 11:00:21;;;;;;;;;6.25;6.25;;;;;18.33;66.50;100593.72;5050613;28;8979;-67
2022/06/08 11:02:53;;;;;;;;;7.50;7.00;;;;;18.25;67.50;100594.97;5039550;28;9555;-67
2022/06/08 11:05:39;;;;;;;;;5.25;5.25;;;;;18.12;67.44;100609.75;5038170;28;8886;-66
2022/06/08 11:08:12;;;;;;;;;6.50;5.00;;;;;18.04;68.38;100605.56;5046914;28;8826;-66
2022/06/08 11:10:41;;;;;;;;;7.75;7.75;;;;;18.02;68.59;100607.69;5043939;28;8853;-66
2022/06/08 11:13:19;;;;;;;;;4.25;2.50;;;;;17.96;68.59;100607.88;5044336;28;8848;-66
2022/06/08 11:15:48;;;;;;;;;2.75;2.00;;;;;17.91;68.68;100613.25;5043543;28;8915;-66
2022/06/08 11:18:21;;;;;;;;;2.00;2.00;;;;;17.90;68.76;100619.75;5053244;28;8806;-65
2022/06/08 11:21:12;;;;;;;;;4.00;4.00;;;;;17.81;69.50;100610.38;5044857;28;8822;-67
2022/06/08 11:23:46;;;;;;;;;4.25;3.00;;;;;17.74;69.71;100608.66;5046582;28;9586;-66
2022/06/08 11:26:17;;;;;;;;;4.50;4.50;;;;;17.69;69.99;100613.13;5051521;28;8863;-66
2022/06/08 11:28:44;;;;;;;;;4.25;3.75;;;;;17.69;70.52;100608.50;5051618;28;8825;-66
2022/06/08 11:31:29;;;;;;;;;4.00;4.00;;;;;17.71;70.85;100611.81;5052269;28;8887;-65
2022/06/08 11:34:19;;;;;;;;;5.25;5.25;;;;;17.69;71.26;100602.25;5050381;28;8822;-65
2022/06/08 11:36:53;;;;;;;;;9.75;8.50;;;;;17.68;71.34;100600.59;5043600;28;8824;-65
2022/06/08 11:39:30;;;;;;;;;8.00;8.00;;;;;17.55;71.29;100599.84;5045865;28;8837;-64
2022/06/08 11:42:27;;;;;;;;;8.00;7.50;;;;;17.55;71.67;100593.59;5047267;28;8907;-65
2022/06/08 11:44:55;;;;;;;;;9.00;7.25;;;;;17.57;71.77;100596.88;5045883;28;8922;-65
2022/06/08 11:47:31;;;;;;;;;9.00;9.00;;;;;17.55;71.21;100596.31;5044612;28;8837;-65
2022/06/08 11:50:13;;;;;;;;;10.00;9.00;;;;;17.46;71.58;100589.59;5047025;28;9196;-66
2022/06/08 11:52:55;;;;;;;;;7.33;7.33;;;;;17.48;71.53;100585.56;5049646;28;9295;-65
2022/06/08 11:55:29;;;;;;;;;10.33;7.67;;;;;17.49;71.49;100592.66;5043424;28;8964;-65
2022/06/08 11:58:04;;;;;;;;;10.33;10.33;;;;;17.40;71.46;100582.44;5043957;28;9158;-66
2022/06/08 12:00:46;;;;;;;;;10.00;7.67;;;;;17.37;71.60;100585.63;5049087;28;9063;-65
2022/06/08 12:03:15;;;;;;;;;8.67;8.00;;;;;17.40;71.86;100577.81;5041852;28;9159;-65
2022/06/08 12:05:47;;;;;;;;;5.00;5.00;;;;;17.38;71.52;100579.13;5041625;28;9132;-64
2022/06/08 12:08:18;;;;;;;;;9.33;9.33;;;;;17.33;72.01;100579.03;5039374;28;8859;-65
2022/06/08 12:11:05;;;;;;;;;7.00;6.67;;;;;17.29;72.23;100584.97;5037292;28;9166;-65